sensor_id;sensor_type;location;lat;lon;timestamp;P1;durP1;ratioP1;P2;durP2;ratioP2
10491;SDS011;5293;51.464;-2.566;2022-11-15T00:02:08;9.37;;;1.80;;
10491;SDS011;5293;51.464;-2.566;2022-11-15T00:04:34;14.47;;;1.80;;
10491;SDS011;5293;51.464;-2.566;2022-11-15T00:07:00;12.90;;;2.00;;
10491;SDS011;5293;51.464;-2.566;2022-11-15T00:09:25;15.07;;;3.97;;
10491;SDS011;5293;51.464;-2.566;2022-11-15T00:11:51;9.87;;;1.83;;
10491;SDS011;5293;51.464;-2.566;2022-11-15T00:14:17;9.73;;;1.90;;
10491;SDS011;5293;51.464;-2.566;2022-11-15T00:16:42;9.50;;;1.87;;
10491;SDS011;5293;51.464;-2.566;2022-11-15T00:19:08;10.60;;;1.73;;
10491;SDS011;5293;51.464;-2.566;2022-11-15T00:21:34;6.87;;;1.57;;
10491;SDS011;5293;51.464;-2.566;2022-11-15T00:24:00;10.40;;;1.63;;
10491;SDS011;5293;51.464;-2.566;2022-11-15T00:26:26;6.23;;;1.60;;
10491;SDS011;5293;51.464;-2.566;2022-11-15T00:28:52;12.50;;;1.53;;
10491;SDS011;5293;51.464;-2.566;2022-11-15T00:31:18;10.27;;;2.33;;
10491;SDS011;5293;51.464;-2.566;2022-11-15T00:33:44;7.83;;;1.43;;
10491;SDS011;5293;51.464;-2.566;2022-11-15T00:36:10;5.60;;;1.63;;
10491;SDS011;5293;51.464;-2.566;2022-11-15T00:38:36;9.80;;;2.23;;
10491;SDS011;5293;51.464;-2.566;2022-11-15T00:41:04;6.53;;;1.90;;
10491;SDS011;5293;51.464;-2.566;2022-11-15T00:43:31;7.97;;;1.63;;
10491;SDS011;5293;51.464;-2.566;2022-11-15T00:45:57;11.27;;;1.80;;
10491;SDS011;5293;51.464;-2.566;2022-11-15T00:48:23;9.13;;;2.00;;
10491;SDS011;5293;51.464;-2.566;2022-11-15T00:50:49;6.43;;;1.77;;
10491;SDS011;5293;51.464;-2.566;2022-11-15T00:53:15;10.93;;;1.80;;
10491;SDS011;5293;51.464;-2.566;2022-11-15T00:55:42;6.50;;;1.90;;
10491;SDS011;5293;51.464;-2.566;2022-11-15T00:58:07;6.10;;;1.57;;
10491;SDS011;5293;51.464;-2.566;2022-11-15T01:00:33;9.70;;;1.90;;
10491;SDS011;5293;51.464;-2.566;2022-11-15T01:03:00;4.73;;;1.67;;
10491;SDS011;5293;51.464;-2.566;2022-11-15T01:05:26;5.73;;;1.40;;
10491;SDS011;5293;51.464;-2.566;2022-11-15T01:07:52;6.03;;;1.67;;
10491;SDS011;5293;51.464;-2.566;2022-11-15T01:10:19;10.30;;;2.10;;
10491;SDS011;5293;51.464;-2.566;2022-11-15T01:12:44;6.63;;;1.77;;
10491;SDS011;5293;51.464;-2.566;2022-11-15T01:15:10;8.30;;;1.63;;
10491;SDS011;5293;51.464;-2.566;2022-11-15T01:17:36;8.90;;;2.27;;
10491;SDS011;5293;51.464;-2.566;2022-11-15T01:20:01;9.50;;;1.90;;
10491;SDS011;5293;51.464;-2.566;2022-11-15T01:22:27;10.60;;;2.70;;
10491;SDS011;5293;51.464;-2.566;2022-11-15T01:24:53;11.93;;;2.27;;
10491;SDS011;5293;51.464;-2.566;2022-11-15T01:27:19;6.97;;;1.37;;
10491;SDS011;5293;51.464;-2.566;2022-11-15T01:29:44;11.60;;;1.77;;
10491;SDS011;5293;51.464;-2.566;2022-11-15T01:32:10;10.00;;;2.23;;
10491;SDS011;5293;51.464;-2.566;2022-11-15T01:34:36;7.60;;;1.67;;
10491;SDS011;5293;51.464;-2.566;2022-11-15T01:37:01;9.83;;;2.00;;
10491;SDS011;5293;51.464;-2.566;2022-11-15T01:39:27;13.90;;;1.80;;
10491;SDS011;5293;51.464;-2.566;2022-11-15T01:41:53;7.37;;;2.50;;
10491;SDS011;5293;51.464;-2.566;2022-11-15T01:47:01;8.00;;;1.67;;
10491;SDS011;5293;51.464;-2.566;2022-11-15T01:49:29;5.73;;;1.80;;
10491;SDS011;5293;51.464;-2.566;2022-11-15T01:51:58;7.03;;;2.20;;
10491;SDS011;5293;51.464;-2.566;2022-11-15T01:54:24;6.07;;;1.87;;
10491;SDS011;5293;51.464;-2.566;2022-11-15T01:56:52;8.47;;;1.47;;
10491;SDS011;5293;51.464;-2.566;2022-11-15T01:59:24;11.00;;;2.30;;
10491;SDS011;5293;51.464;-2.566;2022-11-15T02:01:51;11.43;;;1.73;;
10491;SDS011;5293;51.464;-2.566;2022-11-15T02:04:19;7.80;;;1.50;;
10491;SDS011;5293;51.464;-2.566;2022-11-15T02:06:53;6.13;;;1.77;;
10491;SDS011;5293;51.464;-2.566;2022-11-15T02:09:18;8.20;;;1.67;;
10491;SDS011;5293;51.464;-2.566;2022-11-15T02:11:44;7.97;;;1.87;;
10491;SDS011;5293;51.464;-2.566;2022-11-15T02:14:12;4.93;;;1.40;;
10491;SDS011;5293;51.464;-2.566;2022-11-15T02:22:21;13.37;;;2.23;;
10491;SDS011;5293;51.464;-2.566;2022-11-15T02:27:59;7.97;;;1.80;;
10491;SDS011;5293;51.464;-2.566;2022-11-15T02:34:05;9.13;;;1.87;;
10491;SDS011;5293;51.464;-2.566;2022-11-15T02:39:15;5.53;;;1.87;;
10491;SDS011;5293;51.464;-2.566;2022-11-15T02:41:55;12.13;;;2.00;;
10491;SDS011;5293;51.464;-2.566;2022-11-15T02:44:35;8.40;;;1.53;;
10491;SDS011;5293;51.464;-2.566;2022-11-15T02:47:05;3.90;;;1.23;;
10491;SDS011;5293;51.464;-2.566;2022-11-15T02:49:41;6.47;;;1.70;;
10491;SDS011;5293;51.464;-2.566;2022-11-15T02:52:19;9.50;;;2.13;;
10491;SDS011;5293;51.464;-2.566;2022-11-15T02:54:56;5.30;;;1.23;;
10491;SDS011;5293;51.464;-2.566;2022-11-15T02:57:35;7.03;;;1.30;;
10491;SDS011;5293;51.464;-2.566;2022-11-15T03:00:21;6.73;;;1.50;;
10491;SDS011;5293;51.464;-2.566;2022-11-15T03:08:32;4.03;;;0.97;;
10491;SDS011;5293;51.464;-2.566;2022-11-15T03:13:50;4.23;;;1.17;;
10491;SDS011;5293;51.464;-2.566;2022-11-15T03:16:28;4.57;;;1.30;;
10491;SDS011;5293;51.464;-2.566;2022-11-15T03:21:54;3.03;;;1.00;;
10491;SDS011;5293;51.464;-2.566;2022-11-15T03:24:23;5.83;;;0.90;;
10491;SDS011;5293;51.464;-2.566;2022-11-15T03:26:51;1.30;;;0.87;;
10491;SDS011;5293;51.464;-2.566;2022-11-15T03:29:24;5.73;;;0.83;;
10491;SDS011;5293;51.464;-2.566;2022-11-15T03:31:57;4.10;;;1.33;;
10491;SDS011;5293;51.464;-2.566;2022-11-15T03:34:33;1.87;;;0.80;;
10491;SDS011;5293;51.464;-2.566;2022-11-15T03:37:05;2.90;;;0.90;;
10491;SDS011;5293;51.464;-2.566;2022-11-15T03:39:32;1.60;;;0.60;;
10491;SDS011;5293;51.464;-2.566;2022-11-15T03:44:54;2.23;;;1.00;;
10491;SDS011;5293;51.464;-2.566;2022-11-15T03:50:13;3.23;;;0.70;;
10491;SDS011;5293;51.464;-2.566;2022-11-15T03:52:42;1.37;;;0.47;;
10491;SDS011;5293;51.464;-2.566;2022-11-15T03:55:11;2.63;;;0.50;;
10491;SDS011;5293;51.464;-2.566;2022-11-15T03:57:40;2.17;;;0.90;;
10491;SDS011;5293;51.464;-2.566;2022-11-15T04:00:06;1.77;;;0.70;;
10491;SDS011;5293;51.464;-2.566;2022-11-15T04:02:32;2.17;;;0.70;;
10491;SDS011;5293;51.464;-2.566;2022-11-15T04:04:58;2.90;;;0.67;;
10491;SDS011;5293;51.464;-2.566;2022-11-15T04:07:24;2.20;;;0.70;;
10491;SDS011;5293;51.464;-2.566;2022-11-15T04:09:49;2.80;;;0.70;;
10491;SDS011;5293;51.464;-2.566;2022-11-15T04:12:27;1.20;;;0.60;;
10491;SDS011;5293;51.464;-2.566;2022-11-15T04:15:01;1.60;;;0.80;;
10491;SDS011;5293;51.464;-2.566;2022-11-15T04:20:02;0.63;;;0.40;;
10491;SDS011;5293;51.464;-2.566;2022-11-15T04:22:47;0.40;;;0.40;;
10491;SDS011;5293;51.464;-2.566;2022-11-15T04:25:31;0.27;;;0.27;;
10491;SDS011;5293;51.464;-2.566;2022-11-15T04:27:58;0.40;;;0.40;;
10491;SDS011;5293;51.464;-2.566;2022-11-15T04:30:24;0.67;;;0.40;;
10491;SDS011;5293;51.464;-2.566;2022-11-15T04:32:50;0.33;;;0.33;;
10491;SDS011;5293;51.464;-2.566;2022-11-15T04:35:15;0.23;;;0.23;;
10491;SDS011;5293;51.464;-2.566;2022-11-15T04:37:41;1.60;;;0.40;;
10491;SDS011;5293;51.464;-2.566;2022-11-15T04:40:07;0.30;;;0.30;;
10491;SDS011;5293;51.464;-2.566;2022-11-15T04:42:33;0.97;;;0.40;;
10491;SDS011;5293;51.464;-2.566;2022-11-15T04:44:58;0.63;;;0.30;;
10491;SDS011;5293;51.464;-2.566;2022-11-15T04:47:24;0.20;;;0.20;;
10491;SDS011;5293;51.464;-2.566;2022-11-15T04:49:50;1.23;;;0.40;;
10491;SDS011;5293;51.464;-2.566;2022-11-15T04:52:15;0.73;;;0.30;;
10491;SDS011;5293;51.464;-2.566;2022-11-15T04:54:41;1.10;;;0.53;;
10491;SDS011;5293;51.464;-2.566;2022-11-15T04:57:07;0.30;;;0.30;;
10491;SDS011;5293;51.464;-2.566;2022-11-15T04:59:33;2.00;;;0.40;;
10491;SDS011;5293;51.464;-2.566;2022-11-15T05:01:59;0.60;;;0.40;;
10491;SDS011;5293;51.464;-2.566;2022-11-15T05:04:24;3.73;;;1.33;;
10491;SDS011;5293;51.464;-2.566;2022-11-15T05:06:51;1.07;;;0.60;;
10491;SDS011;5293;51.464;-2.566;2022-11-15T05:09:19;0.67;;;0.40;;
10491;SDS011;5293;51.464;-2.566;2022-11-15T05:11:46;2.33;;;0.60;;
10491;SDS011;5293;51.464;-2.566;2022-11-15T05:14:12;0.60;;;0.40;;
10491;SDS011;5293;51.464;-2.566;2022-11-15T05:16:38;4.33;;;0.90;;
10491;SDS011;5293;51.464;-2.566;2022-11-15T05:19:04;0.77;;;0.60;;
10491;SDS011;5293;51.464;-2.566;2022-11-15T05:21:30;0.40;;;0.40;;
10491;SDS011;5293;51.464;-2.566;2022-11-15T05:23:57;1.97;;;0.57;;
10491;SDS011;5293;51.464;-2.566;2022-11-15T05:26:23;0.97;;;0.63;;
10491;SDS011;5293;51.464;-2.566;2022-11-15T05:28:52;4.13;;;0.70;;
10491;SDS011;5293;51.464;-2.566;2022-11-15T05:31:19;0.60;;;0.40;;
10491;SDS011;5293;51.464;-2.566;2022-11-15T05:33:45;3.37;;;0.70;;
10491;SDS011;5293;51.464;-2.566;2022-11-15T05:38:49;1.50;;;0.67;;
10491;SDS011;5293;51.464;-2.566;2022-11-15T05:41:15;3.17;;;0.70;;
10491;SDS011;5293;51.464;-2.566;2022-11-15T05:43:44;1.97;;;0.90;;
10491;SDS011;5293;51.464;-2.566;2022-11-15T05:46:10;1.27;;;0.70;;
10491;SDS011;5293;51.464;-2.566;2022-11-15T05:48:39;0.80;;;0.60;;
10491;SDS011;5293;51.464;-2.566;2022-11-15T05:51:07;3.47;;;0.60;;
10491;SDS011;5293;51.464;-2.566;2022-11-15T05:53:33;1.60;;;0.87;;
10491;SDS011;5293;51.464;-2.566;2022-11-15T05:55:59;2.20;;;0.80;;
10491;SDS011;5293;51.464;-2.566;2022-11-15T05:58:25;2.30;;;0.73;;
10491;SDS011;5293;51.464;-2.566;2022-11-15T06:00:51;0.93;;;0.60;;
10491;SDS011;5293;51.464;-2.566;2022-11-15T06:03:17;1.53;;;0.77;;
10491;SDS011;5293;51.464;-2.566;2022-11-15T06:05:42;2.57;;;0.87;;
10491;SDS011;5293;51.464;-2.566;2022-11-15T06:08:08;3.27;;;1.07;;
10491;SDS011;5293;51.464;-2.566;2022-11-15T06:10:33;2.07;;;0.70;;
10491;SDS011;5293;51.464;-2.566;2022-11-15T06:13:00;1.80;;;1.03;;
10491;SDS011;5293;51.464;-2.566;2022-11-15T06:15:27;1.47;;;0.80;;
10491;SDS011;5293;51.464;-2.566;2022-11-15T06:17:55;4.33;;;0.87;;
10491;SDS011;5293;51.464;-2.566;2022-11-15T06:20:25;1.97;;;0.93;;
10491;SDS011;5293;51.464;-2.566;2022-11-15T06:22:58;3.53;;;0.90;;
10491;SDS011;5293;51.464;-2.566;2022-11-15T06:25:25;1.40;;;0.70;;
10491;SDS011;5293;51.464;-2.566;2022-11-15T06:27:52;2.17;;;0.90;;
10491;SDS011;5293;51.464;-2.566;2022-11-15T06:30:21;1.27;;;0.80;;
10491;SDS011;5293;51.464;-2.566;2022-11-15T06:32:48;1.97;;;0.70;;
10491;SDS011;5293;51.464;-2.566;2022-11-15T06:35:13;3.37;;;1.43;;
10491;SDS011;5293;51.464;-2.566;2022-11-15T06:37:40;46.40;;;5.63;;
10491;SDS011;5293;51.464;-2.566;2022-11-15T06:40:06;2.53;;;0.77;;
10491;SDS011;5293;51.464;-2.566;2022-11-15T06:42:33;0.87;;;0.70;;
10491;SDS011;5293;51.464;-2.566;2022-11-15T06:44:59;2.73;;;1.20;;
10491;SDS011;5293;51.464;-2.566;2022-11-15T06:47:24;1.27;;;0.77;;
10491;SDS011;5293;51.464;-2.566;2022-11-15T06:49:50;1.60;;;0.77;;
10491;SDS011;5293;51.464;-2.566;2022-11-15T06:52:16;0.77;;;0.60;;
10491;SDS011;5293;51.464;-2.566;2022-11-15T06:54:43;1.80;;;1.00;;
10491;SDS011;5293;51.464;-2.566;2022-11-15T06:57:09;2.13;;;0.90;;
10491;SDS011;5293;51.464;-2.566;2022-11-15T06:59:35;2.23;;;0.73;;
10491;SDS011;5293;51.464;-2.566;2022-11-15T07:02:01;1.77;;;0.87;;
10491;SDS011;5293;51.464;-2.566;2022-11-15T07:04:27;2.07;;;0.80;;
10491;SDS011;5293;51.464;-2.566;2022-11-15T07:06:52;2.27;;;1.10;;
10491;SDS011;5293;51.464;-2.566;2022-11-15T07:09:18;3.50;;;0.83;;
10491;SDS011;5293;51.464;-2.566;2022-11-15T07:11:44;3.70;;;1.07;;
10491;SDS011;5293;51.464;-2.566;2022-11-15T07:14:09;2.90;;;1.10;;
10491;SDS011;5293;51.464;-2.566;2022-11-15T07:16:36;3.13;;;0.90;;
10491;SDS011;5293;51.464;-2.566;2022-11-15T07:19:02;3.00;;;0.90;;
10491;SDS011;5293;51.464;-2.566;2022-11-15T07:21:28;5.57;;;0.90;;
10491;SDS011;5293;51.464;-2.566;2022-11-15T07:23:53;2.67;;;1.13;;
10491;SDS011;5293;51.464;-2.566;2022-11-15T07:26:19;3.33;;;1.07;;
10491;SDS011;5293;51.464;-2.566;2022-11-15T07:28:45;2.37;;;0.80;;
10491;SDS011;5293;51.464;-2.566;2022-11-15T07:31:11;2.80;;;0.90;;
10491;SDS011;5293;51.464;-2.566;2022-11-15T07:33:37;5.53;;;0.97;;
10491;SDS011;5293;51.464;-2.566;2022-11-15T07:36:03;3.60;;;0.90;;
10491;SDS011;5293;51.464;-2.566;2022-11-15T07:38:30;3.47;;;0.90;;
10491;SDS011;5293;51.464;-2.566;2022-11-15T07:41:00;0.97;;;0.80;;
10491;SDS011;5293;51.464;-2.566;2022-11-15T07:43:27;2.00;;;0.60;;
10491;SDS011;5293;51.464;-2.566;2022-11-15T07:45:54;2.00;;;0.80;;
10491;SDS011;5293;51.464;-2.566;2022-11-15T07:48:20;2.57;;;0.73;;
10491;SDS011;5293;51.464;-2.566;2022-11-15T07:50:46;2.63;;;0.83;;
10491;SDS011;5293;51.464;-2.566;2022-11-15T07:53:12;2.13;;;0.80;;
10491;SDS011;5293;51.464;-2.566;2022-11-15T07:55:39;2.60;;;0.90;;
10491;SDS011;5293;51.464;-2.566;2022-11-15T07:58:07;2.73;;;0.67;;
10491;SDS011;5293;51.464;-2.566;2022-11-15T08:00:34;3.33;;;1.20;;
10491;SDS011;5293;51.464;-2.566;2022-11-15T08:03:11;3.53;;;0.80;;
10491;SDS011;5293;51.464;-2.566;2022-11-15T08:05:38;1.27;;;0.60;;
10491;SDS011;5293;51.464;-2.566;2022-11-15T08:08:05;2.47;;;0.80;;
10491;SDS011;5293;51.464;-2.566;2022-11-15T08:10:31;3.97;;;0.83;;
10491;SDS011;5293;51.464;-2.566;2022-11-15T08:13:04;2.33;;;0.70;;
10491;SDS011;5293;51.464;-2.566;2022-11-15T08:15:32;3.93;;;0.73;;
10491;SDS011;5293;51.464;-2.566;2022-11-15T08:18:03;0.93;;;0.73;;
10491;SDS011;5293;51.464;-2.566;2022-11-15T08:20:31;0.70;;;0.47;;
10491;SDS011;5293;51.464;-2.566;2022-11-15T08:22:57;2.43;;;0.50;;
10491;SDS011;5293;51.464;-2.566;2022-11-15T08:25:24;2.37;;;0.63;;
10491;SDS011;5293;51.464;-2.566;2022-11-15T08:27:59;1.80;;;0.70;;
10491;SDS011;5293;51.464;-2.566;2022-11-15T08:30:26;3.00;;;0.83;;
10491;SDS011;5293;51.464;-2.566;2022-11-15T08:32:52;0.87;;;0.40;;
10491;SDS011;5293;51.464;-2.566;2022-11-15T08:35:20;1.73;;;0.40;;
10491;SDS011;5293;51.464;-2.566;2022-11-15T08:37:46;1.70;;;0.60;;
10491;SDS011;5293;51.464;-2.566;2022-11-15T08:40:12;0.50;;;0.50;;
10491;SDS011;5293;51.464;-2.566;2022-11-15T08:42:39;1.67;;;0.70;;
10491;SDS011;5293;51.464;-2.566;2022-11-15T08:45:05;1.43;;;0.57;;
10491;SDS011;5293;51.464;-2.566;2022-11-15T08:47:31;3.37;;;0.63;;
10491;SDS011;5293;51.464;-2.566;2022-11-15T08:49:57;2.60;;;0.70;;
10491;SDS011;5293;51.464;-2.566;2022-11-15T08:52:22;1.37;;;0.80;;
10491;SDS011;5293;51.464;-2.566;2022-11-15T08:54:48;1.50;;;0.50;;
10491;SDS011;5293;51.464;-2.566;2022-11-15T08:57:14;1.53;;;0.40;;
10491;SDS011;5293;51.464;-2.566;2022-11-15T08:59:40;1.03;;;0.60;;
10491;SDS011;5293;51.464;-2.566;2022-11-15T09:02:05;0.73;;;0.37;;
10491;SDS011;5293;51.464;-2.566;2022-11-15T09:04:31;0.30;;;0.30;;
10491;SDS011;5293;51.464;-2.566;2022-11-15T09:06:57;5.07;;;2.77;;
10491;SDS011;5293;51.464;-2.566;2022-11-15T09:09:23;1.37;;;1.20;;
10491;SDS011;5293;51.464;-2.566;2022-11-15T09:11:49;3.13;;;0.90;;
10491;SDS011;5293;51.464;-2.566;2022-11-15T09:14:15;1.20;;;0.67;;
10491;SDS011;5293;51.464;-2.566;2022-11-15T09:16:41;1.23;;;1.13;;
10491;SDS011;5293;51.464;-2.566;2022-11-15T09:19:07;1.77;;;1.20;;
10491;SDS011;5293;51.464;-2.566;2022-11-15T09:21:32;1.00;;;0.90;;
10491;SDS011;5293;51.464;-2.566;2022-11-15T09:23:58;0.87;;;0.80;;
10491;SDS011;5293;51.464;-2.566;2022-11-15T09:26:24;4.07;;;2.37;;
10491;SDS011;5293;51.464;-2.566;2022-11-15T09:28:50;2.60;;;0.80;;
10491;SDS011;5293;51.464;-2.566;2022-11-15T09:31:16;1.40;;;0.60;;
10491;SDS011;5293;51.464;-2.566;2022-11-15T09:33:44;3.20;;;0.63;;
10491;SDS011;5293;51.464;-2.566;2022-11-15T09:36:10;1.70;;;1.00;;
10491;SDS011;5293;51.464;-2.566;2022-11-15T09:38:37;2.47;;;0.80;;
10491;SDS011;5293;51.464;-2.566;2022-11-15T09:41:08;4.97;;;0.90;;
10491;SDS011;5293;51.464;-2.566;2022-11-15T09:49:09;3.53;;;1.00;;
10491;SDS011;5293;51.464;-2.566;2022-11-15T09:51:39;3.50;;;1.03;;
10491;SDS011;5293;51.464;-2.566;2022-11-15T10:02:23;3.50;;;1.30;;
10491;SDS011;5293;51.464;-2.566;2022-11-15T10:05:02;1.97;;;1.40;;
10491;SDS011;5293;51.464;-2.566;2022-11-15T10:07:45;3.53;;;1.37;;
10491;SDS011;5293;51.464;-2.566;2022-11-15T10:12:52;16.03;;;5.80;;
10491;SDS011;5293;51.464;-2.566;2022-11-15T10:15:18;7.97;;;2.47;;
10491;SDS011;5293;51.464;-2.566;2022-11-15T10:20:58;5.90;;;1.57;;
10491;SDS011;5293;51.464;-2.566;2022-11-15T10:23:24;4.13;;;1.90;;
10491;SDS011;5293;51.464;-2.566;2022-11-15T10:25:55;4.40;;;1.37;;
10491;SDS011;5293;51.464;-2.566;2022-11-15T10:28:30;2.47;;;1.70;;
10491;SDS011;5293;51.464;-2.566;2022-11-15T10:30:59;5.97;;;2.10;;
10491;SDS011;5293;51.464;-2.566;2022-11-15T10:38:49;6.87;;;1.67;;
10491;SDS011;5293;51.464;-2.566;2022-11-15T10:41:18;6.30;;;1.70;;
10491;SDS011;5293;51.464;-2.566;2022-11-15T10:44:10;5.10;;;1.70;;
10491;SDS011;5293;51.464;-2.566;2022-11-15T10:46:37;4.20;;;1.67;;
10491;SDS011;5293;51.464;-2.566;2022-11-15T10:49:15;4.63;;;2.10;;
10491;SDS011;5293;51.464;-2.566;2022-11-15T10:51:53;5.28;;;1.58;;
10491;SDS011;5293;51.464;-2.566;2022-11-15T10:55:24;4.77;;;2.10;;
10491;SDS011;5293;51.464;-2.566;2022-11-15T10:57:35;7.80;;;1.73;;
10491;SDS011;5293;51.464;-2.566;2022-11-15T11:00:04;4.50;;;1.50;;
10491;SDS011;5293;51.464;-2.566;2022-11-15T11:05:37;7.40;;;2.10;;
10491;SDS011;5293;51.464;-2.566;2022-11-15T11:08:16;5.10;;;1.80;;
10491;SDS011;5293;51.464;-2.566;2022-11-15T11:11:00;2.97;;;1.73;;
10491;SDS011;5293;51.464;-2.566;2022-11-15T11:13:29;4.60;;;1.80;;
10491;SDS011;5293;51.464;-2.566;2022-11-15T11:18:47;5.23;;;2.00;;
10491;SDS011;5293;51.464;-2.566;2022-11-15T11:30:03;4.60;;;2.13;;
10491;SDS011;5293;51.464;-2.566;2022-11-15T11:38:15;3.93;;;2.60;;
10491;SDS011;5293;51.464;-2.566;2022-11-15T11:55:05;5.90;;;2.00;;
10491;SDS011;5293;51.464;-2.566;2022-11-15T11:57:57;5.03;;;1.90;;
10491;SDS011;5293;51.464;-2.566;2022-11-15T12:00:27;5.77;;;1.87;;
10491;SDS011;5293;51.464;-2.566;2022-11-15T12:03:12;4.93;;;1.80;;
10491;SDS011;5293;51.464;-2.566;2022-11-15T12:05:46;4.10;;;1.80;;
10491;SDS011;5293;51.464;-2.566;2022-11-15T12:08:24;6.37;;;1.80;;
10491;SDS011;5293;51.464;-2.566;2022-11-15T12:11:17;3.77;;;1.40;;
10491;SDS011;5293;51.464;-2.566;2022-11-15T12:13:50;4.13;;;1.30;;
10491;SDS011;5293;51.464;-2.566;2022-11-15T12:16:23;3.30;;;1.23;;
10491;SDS011;5293;51.464;-2.566;2022-11-15T12:18:53;4.83;;;1.60;;
10491;SDS011;5293;51.464;-2.566;2022-11-15T12:21:26;5.43;;;1.50;;
10491;SDS011;5293;51.464;-2.566;2022-11-15T12:23:59;3.97;;;1.30;;
10491;SDS011;5293;51.464;-2.566;2022-11-15T12:26:33;3.33;;;1.27;;
10491;SDS011;5293;51.464;-2.566;2022-11-15T12:29:06;7.53;;;1.83;;
10491;SDS011;5293;51.464;-2.566;2022-11-15T12:31:50;7.73;;;1.80;;
10491;SDS011;5293;51.464;-2.566;2022-11-15T12:36:48;2.87;;;1.50;;
10491;SDS011;5293;51.464;-2.566;2022-11-15T12:39:15;2.47;;;1.60;;
10491;SDS011;5293;51.464;-2.566;2022-11-15T12:44:12;5.03;;;1.50;;
10491;SDS011;5293;51.464;-2.566;2022-11-15T12:47:03;8.70;;;1.60;;
10491;SDS011;5293;51.464;-2.566;2022-11-15T13:20:17;8.97;;;2.90;;
10491;SDS011;5293;51.464;-2.566;2022-11-15T13:28:27;7.63;;;2.57;;
10491;SDS011;5293;51.464;-2.566;2022-11-15T13:31:23;10.17;;;3.20;;
10491;SDS011;5293;51.464;-2.566;2022-11-15T13:33:47;8.30;;;2.37;;
10491;SDS011;5293;51.464;-2.566;2022-11-15T13:36:14;9.57;;;2.40;;
10491;SDS011;5293;51.464;-2.566;2022-11-15T13:38:43;9.27;;;2.50;;
10491;SDS011;5293;51.464;-2.566;2022-11-15T13:41:20;10.20;;;2.17;;
10491;SDS011;5293;51.464;-2.566;2022-11-15T13:43:48;7.47;;;2.33;;
10491;SDS011;5293;51.464;-2.566;2022-11-15T13:48:57;8.70;;;2.47;;
10491;SDS011;5293;51.464;-2.566;2022-11-15T13:51:36;9.73;;;2.27;;
10491;SDS011;5293;51.464;-2.566;2022-11-15T13:59:36;6.23;;;2.63;;
10491;SDS011;5293;51.464;-2.566;2022-11-15T14:02:20;10.10;;;2.00;;
10491;SDS011;5293;51.464;-2.566;2022-11-15T14:04:51;5.23;;;1.70;;
10491;SDS011;5293;51.464;-2.566;2022-11-15T14:07:19;9.33;;;1.60;;
10491;SDS011;5293;51.464;-2.566;2022-11-15T14:09:46;7.43;;;1.50;;
10491;SDS011;5293;51.464;-2.566;2022-11-15T14:14:50;6.30;;;2.27;;
10491;SDS011;5293;51.464;-2.566;2022-11-15T14:17:19;6.03;;;1.60;;
10491;SDS011;5293;51.464;-2.566;2022-11-15T14:19:54;9.27;;;1.70;;
10491;SDS011;5293;51.464;-2.566;2022-11-15T14:22:24;5.17;;;1.87;;
10491;SDS011;5293;51.464;-2.566;2022-11-15T14:28:07;8.30;;;2.50;;
10491;SDS011;5293;51.464;-2.566;2022-11-15T14:30:48;5.70;;;2.10;;
10491;SDS011;5293;51.464;-2.566;2022-11-15T14:33:34;7.53;;;2.10;;
10491;SDS011;5293;51.464;-2.566;2022-11-15T14:38:30;8.60;;;2.07;;
10491;SDS011;5293;51.464;-2.566;2022-11-15T14:40:56;6.90;;;2.57;;
10491;SDS011;5293;51.464;-2.566;2022-11-15T14:43:22;7.80;;;3.50;;
10491;SDS011;5293;51.464;-2.566;2022-11-15T14:45:48;9.33;;;3.47;;
10491;SDS011;5293;51.464;-2.566;2022-11-15T14:48:13;13.30;;;3.30;;
10491;SDS011;5293;51.464;-2.566;2022-11-15T14:50:39;10.03;;;3.03;;
10491;SDS011;5293;51.464;-2.566;2022-11-15T14:53:05;8.53;;;2.97;;
10491;SDS011;5293;51.464;-2.566;2022-11-15T14:55:32;9.90;;;2.33;;
10491;SDS011;5293;51.464;-2.566;2022-11-15T14:58:04;8.60;;;2.40;;
10491;SDS011;5293;51.464;-2.566;2022-11-15T15:00:37;11.73;;;2.67;;
10491;SDS011;5293;51.464;-2.566;2022-11-15T15:03:05;7.57;;;2.10;;
10491;SDS011;5293;51.464;-2.566;2022-11-15T15:05:36;7.00;;;2.53;;
10491;SDS011;5293;51.464;-2.566;2022-11-15T15:08:03;8.23;;;2.50;;
10491;SDS011;5293;51.464;-2.566;2022-11-15T15:10:33;7.67;;;2.40;;
10491;SDS011;5293;51.464;-2.566;2022-11-15T15:13:02;8.25;;;2.60;;
10491;SDS011;5293;51.464;-2.566;2022-11-15T15:15:32;9.80;;;2.27;;
10491;SDS011;5293;51.464;-2.566;2022-11-15T15:18:00;9.60;;;3.07;;
10491;SDS011;5293;51.464;-2.566;2022-11-15T15:20:26;9.97;;;2.77;;
10491;SDS011;5293;51.464;-2.566;2022-11-15T15:22:52;8.83;;;2.40;;
10491;SDS011;5293;51.464;-2.566;2022-11-15T15:27:54;5.53;;;1.83;;
10491;SDS011;5293;51.464;-2.566;2022-11-15T15:30:20;4.73;;;1.90;;
10491;SDS011;5293;51.464;-2.566;2022-11-15T15:32:47;5.33;;;1.90;;
10491;SDS011;5293;51.464;-2.566;2022-11-15T15:35:13;6.53;;;2.00;;
10491;SDS011;5293;51.464;-2.566;2022-11-15T15:37:40;4.73;;;1.37;;
10491;SDS011;5293;51.464;-2.566;2022-11-15T15:40:25;6.90;;;1.60;;
10491;SDS011;5293;51.464;-2.566;2022-11-15T15:42:53;3.20;;;1.03;;
10491;SDS011;5293;51.464;-2.566;2022-11-15T15:45:19;1.70;;;1.17;;
10491;SDS011;5293;51.464;-2.566;2022-11-15T15:47:45;4.13;;;1.20;;
10491;SDS011;5293;51.464;-2.566;2022-11-15T15:52:39;5.67;;;1.50;;
10491;SDS011;5293;51.464;-2.566;2022-11-15T15:55:05;2.40;;;1.30;;
10491;SDS011;5293;51.464;-2.566;2022-11-15T15:57:31;5.57;;;1.63;;
10491;SDS011;5293;51.464;-2.566;2022-11-15T15:59:57;2.43;;;1.40;;
10491;SDS011;5293;51.464;-2.566;2022-11-15T16:02:23;5.50;;;1.93;;
10491;SDS011;5293;51.464;-2.566;2022-11-15T16:04:48;2.87;;;1.87;;
10491;SDS011;5293;51.464;-2.566;2022-11-15T16:07:20;3.00;;;1.23;;
10491;SDS011;5293;51.464;-2.566;2022-11-15T16:09:50;1.93;;;1.03;;
10491;SDS011;5293;51.464;-2.566;2022-11-15T16:12:25;3.10;;;1.37;;
10491;SDS011;5293;51.464;-2.566;2022-11-15T16:14:59;2.83;;;1.30;;
10491;SDS011;5293;51.464;-2.566;2022-11-15T16:17:35;4.70;;;1.80;;
10491;SDS011;5293;51.464;-2.566;2022-11-15T16:20:05;1.83;;;1.40;;
10491;SDS011;5293;51.464;-2.566;2022-11-15T16:22:31;4.77;;;1.60;;
10491;SDS011;5293;51.464;-2.566;2022-11-15T16:24:56;4.10;;;1.40;;
10491;SDS011;5293;51.464;-2.566;2022-11-15T16:27:22;7.23;;;1.70;;
10491;SDS011;5293;51.464;-2.566;2022-11-15T16:29:48;2.97;;;1.40;;
10491;SDS011;5293;51.464;-2.566;2022-11-15T16:32:14;6.13;;;2.43;;
10491;SDS011;5293;51.464;-2.566;2022-11-15T16:34:40;7.47;;;3.37;;
10491;SDS011;5293;51.464;-2.566;2022-11-15T16:37:22;6.50;;;2.73;;
10491;SDS011;5293;51.464;-2.566;2022-11-15T16:39:48;5.13;;;2.50;;
10491;SDS011;5293;51.464;-2.566;2022-11-15T16:42:14;5.53;;;2.40;;
10491;SDS011;5293;51.464;-2.566;2022-11-15T16:44:40;9.40;;;2.60;;
10491;SDS011;5293;51.464;-2.566;2022-11-15T16:47:12;8.90;;;2.70;;
10491;SDS011;5293;51.464;-2.566;2022-11-15T16:49:42;8.87;;;2.53;;
10491;SDS011;5293;51.464;-2.566;2022-11-15T16:52:09;6.33;;;2.23;;
10491;SDS011;5293;51.464;-2.566;2022-11-15T16:54:34;7.40;;;3.20;;
10491;SDS011;5293;51.464;-2.566;2022-11-15T16:57:00;5.17;;;2.90;;
10491;SDS011;5293;51.464;-2.566;2022-11-15T16:59:26;8.70;;;2.40;;
10491;SDS011;5293;51.464;-2.566;2022-11-15T17:01:52;10.03;;;2.73;;
10491;SDS011;5293;51.464;-2.566;2022-11-15T17:04:18;4.90;;;2.37;;
10491;SDS011;5293;51.464;-2.566;2022-11-15T17:06:46;5.03;;;2.23;;
10491;SDS011;5293;51.464;-2.566;2022-11-15T17:09:13;5.73;;;2.70;;
10491;SDS011;5293;51.464;-2.566;2022-11-15T17:11:41;8.47;;;2.67;;
10491;SDS011;5293;51.464;-2.566;2022-11-15T17:14:07;5.47;;;2.23;;
10491;SDS011;5293;51.464;-2.566;2022-11-15T17:16:33;6.47;;;2.10;;
10491;SDS011;5293;51.464;-2.566;2022-11-15T17:19:02;6.03;;;2.30;;
10491;SDS011;5293;51.464;-2.566;2022-11-15T17:21:28;4.40;;;2.50;;
10491;SDS011;5293;51.464;-2.566;2022-11-15T17:23:54;3.83;;;2.27;;
10491;SDS011;5293;51.464;-2.566;2022-11-15T17:26:20;2.80;;;1.53;;
10491;SDS011;5293;51.464;-2.566;2022-11-15T17:28:46;4.33;;;1.47;;
10491;SDS011;5293;51.464;-2.566;2022-11-15T17:31:13;3.60;;;1.00;;
10491;SDS011;5293;51.464;-2.566;2022-11-15T17:33:39;4.67;;;1.23;;
10491;SDS011;5293;51.464;-2.566;2022-11-15T17:36:06;7.30;;;3.00;;
10491;SDS011;5293;51.464;-2.566;2022-11-15T17:38:34;4.90;;;1.17;;